Time;durP1;ratioP1;P1;durP2;ratioP2;P2;SDS_P1;SDS_P2;PMS_P1;PMS_P2;Temp;Humidity;BMP_temperature;BMP_pressure;BME280_temperature;BME280_humidity;BME280_pressure;Samples;Min_cycle;Max_cycle;Signal;HPM_P1;HPM_P2
2023/05/01 00:00:09;;;;;;;1.20;1.03;;;11.80;97.50;;;;;;5053507;28;20795;-71
2023/05/01 00:02:36;;;;;;;1.10;1.10;;;11.80;97.00;;;;;;5053206;28;20499;-70
2023/05/01 00:05:03;;;;;;;0.90;0.77;;;11.80;97.10;;;;;;5053075;28;20430;-70
2023/05/01 00:07:29;;;;;;;1.90;0.83;;;11.80;96.90;;;;;;5052872;28;20416;-71
2023/05/01 00:09:56;;;;;;;0.80;0.80;;;11.70;96.90;;;;;;5052919;28;20503;-71
2023/05/01 00:12:22;;;;;;;1.10;1.00;;;11.70;96.90;;;;;;5053049;28;20492;-71
2023/05/01 00:14:48;;;;;;;1.57;0.83;;;11.70;96.90;;;;;;5053116;28;20428;-71
2023/05/01 00:17:14;;;;;;;0.90;0.90;;;11.80;97.50;;;;;;5052814;28;20500;-71
2023/05/01 00:19:40;;;;;;;0.80;0.80;;;11.80;97.30;;;;;;5053065;28;20483;-71
2023/05/01 00:22:05;;;;;;;0.60;0.60;;;11.90;97.10;;;;;;5053047;28;20166;-70
2023/05/01 00:24:31;;;;;;;1.93;1.80;;;12.00;96.90;;;;;;5052781;28;20474;-71
2023/05/01 00:26:57;;;;;;;1.07;1.03;;;12.00;97.20;;;;;;5053038;28;20244;-71
2023/05/01 00:29:22;;;;;;;1.17;1.17;;;12.00;97.50;;;;;;5053228;28;20167;-71
2023/05/01 00:31:48;;;;;;;0.83;0.80;;;11.90;97.60;;;;;;5052863;28;20587;-70
2023/05/01 00:34:15;;;;;;;0.63;0.63;;;11.80;97.90;;;;;;5056834;28;20182;-71
2023/05/01 00:36:41;;;;;;;0.60;0.60;;;11.80;97.50;;;;;;5056942;28;20582;-71
2023/05/01 00:39:07;;;;;;;1.13;1.03;;;11.90;97.30;;;;;;5056987;28;20455;-71
2023/05/01 00:41:34;;;;;;;1.63;0.87;;;11.90;97.40;;;;;;5056628;28;20265;-71
2023/05/01 00:44:01;;;;;;;2.10;1.10;;;12.10;99.90;;;;;;5056533;28;20404;-71
2023/05/01 00:46:28;;;;;;;0.60;0.60;;;12.00;98.00;;;;;;5056793;28;20908;-71
2023/05/01 00:48:55;;;;;;;0.40;0.40;;;11.90;97.80;;;;;;5056197;28;20408;-71
2023/05/01 00:51:21;;;;;;;1.33;0.93;;;11.80;98.00;;;;;;5056536;28;20445;-71
2023/05/01 00:53:48;;;;;;;0.73;0.73;;;11.70;98.00;;;;;;5056385;28;20915;-70
2023/05/01 00:56:14;;;;;;;1.27;1.17;;;11.70;98.40;;;;;;5056274;28;20450;-71
2023/05/01 00:58:41;;;;;;;1.30;1.30;;;11.70;98.20;;;;;;5056210;28;20951;-70
2023/05/01 01:01:08;;;;;;;2.40;1.53;;;11.70;98.60;;;;;;5056404;28;20462;-70
2023/05/01 01:03:34;;;;;;;0.70;0.70;;;11.60;98.40;;;;;;5056238;28;20421;-71
2023/05/01 01:06:30;;;;;;;1.60;1.60;;;11.70;98.50;;;;;;5056306;28;20429;-70
2023/05/01 01:09:14;;;;;;;0.60;0.60;;;11.80;98.20;;;;;;5055900;28;20167;-71
2023/05/01 01:11:52;;;;;;;0.70;0.70;;;11.90;98.00;;;;;;5055945;28;20460;-71
2023/05/01 01:14:51;;;;;;;0.40;0.40;;;11.90;98.10;;;;;;5056145;28;20435;-70
2023/05/01 01:17:51;;;;;;;2.30;1.80;;;11.80;98.30;;;;;;5055037;28;20524;-70
2023/05/01 01:20:29;;;;;;;0.50;0.50;;;11.60;98.60;;;;;;5055700;28;20421;-71
2023/05/01 01:23:20;;;;;;;0.77;0.77;;;11.60;98.90;;;;;;5055815;28;20405;-71
2023/05/01 01:26:09;;;;;;;0.70;0.70;;;11.60;98.90;;;;;;5055971;28;20464;-71
2023/05/01 01:28:59;;;;;;;1.20;1.13;;;11.60;99.00;;;;;;5055577;28;20409;-71
2023/05/01 01:31:46;;;;;;;1.57;1.50;;;11.60;98.80;;;;;;5055884;28;20452;-71
2023/05/01 01:34:19;;;;;;;1.40;1.30;;;11.40;99.90;;;;;;5055740;28;20393;-71
2023/05/01 01:37:06;;;;;;;0.60;0.60;;;11.50;99.30;;;;;;5055551;28;20877;-71
2023/05/01 01:39:49;;;;;;;0.60;0.60;;;11.50;99.70;;;;;;5055853;28;20377;-71
2023/05/01 01:42:19;;;;;;;1.17;1.17;;;11.50;99.50;;;;;;5055735;28;20389;-70
2023/05/01 01:44:51;;;;;;;0.50;0.50;;;11.50;99.90;;;;;;5055019;28;20421;-70
2023/05/01 01:47:19;;;;;;;2.13;1.23;;;11.50;99.90;;;;;;5055358;28;20377;-71
2023/05/01 01:49:50;;;;;;;0.47;0.47;;;11.50;99.90;;;;;;5055215;28;20425;-70
2023/05/01 01:52:18;;;;;;;0.83;0.67;;;11.40;99.90;;;;;;5055786;28;20409;-71
2023/05/01 01:54:58;;;;;;;0.47;0.47;;;11.50;99.90;;;;;;5055079;28;20920;-70
2023/05/01 01:57:26;;;;;;;0.80;0.80;;;11.50;99.90;;;;;;5055042;28;20489;-71
2023/05/01 01:59:53;;;;;;;1.03;0.90;;;11.50;99.90;;;;;;5055301;28;20885;-71
2023/05/01 02:02:20;;;;;;;1.50;1.13;;;11.50;99.90;;;;;;5055186;28;20408;-71
2023/05/01 02:04:48;;;;;;;2.33;1.13;;;11.50;99.90;;;;;;5054970;28;20448;-71
2023/05/01 02:07:15;;;;;;;2.13;2.03;;;11.50;99.90;;;;;;5054841;28;20440;-71
2023/05/01 02:09:43;;;;;;;3.23;1.37;;;11.40;99.90;;;;;;5055502;28;20762;-70
2023/05/01 02:12:11;;;;;;;0.70;0.70;;;11.40;99.90;;;;;;5054999;28;20410;-70
2023/05/01 02:14:37;;;;;;;1.30;1.20;;;11.30;99.90;;;;;;5054984;28;20478;-71
2023/05/01 02:17:04;;;;;;;2.67;1.40;;;11.30;99.90;;;;;;5054602;28;20404;-71
2023/05/01 02:19:32;;;;;;;1.53;1.23;;;11.30;99.90;;;;;;5054803;28;20440;-70
2023/05/01 02:21:59;;;;;;;6.23;1.80;;;11.30;99.90;;;;;;5054781;28;20400;-71
2023/05/01 02:24:27;;;;;;;1.07;1.00;;;11.40;99.90;;;;;;5054710;28;20474;-70
2023/05/01 02:27:05;;;;;;;1.70;1.60;;;11.40;99.90;;;;;;5054410;28;20918;-71
2023/05/01 02:29:32;;;;;;;0.90;0.90;;;11.40;99.90;;;;;;5055174;28;20530;-71
2023/05/01 02:31:59;;;;;;;0.83;0.83;;;11.30;99.90;;;;;;5054720;28;20436;-71
2023/05/01 02:34:25;;;;;;;0.60;0.60;;;11.30;99.90;;;;;;5054452;28;20417;-70
2023/05/01 02:36:50;;;;;;;0.60;0.60;;;11.30;99.90;;;;;;5054284;28;20538;-71
2023/05/01 02:39:16;;;;;;;0.73;0.73;;;11.30;99.90;;;;;;5054614;28;20397;-70
2023/05/01 02:41:43;;;;;;;0.40;0.40;;;11.30;99.90;;;;;;5054447;28;20171;-71
2023/05/01 02:44:11;;;;;;;1.63;1.53;;;11.20;99.90;;;;;;5054563;28;20405;-71
2023/05/01 02:46:42;;;;;;;1.93;1.00;;;11.20;99.90;;;;;;5054399;28;20411;-70
2023/05/01 02:49:09;;;;;;;0.73;0.73;;;11.10;99.90;;;;;;5054185;28;20412;-71
2023/05/01 02:51:36;;;;;;;2.73;2.53;;;11.20;99.90;;;;;;5054237;28;20499;-71
2023/05/01 02:54:02;;;;;;;1.23;1.23;;;11.40;99.90;;;;;;5054227;28;20478;-71
2023/05/01 02:56:28;;;;;;;1.30;1.17;;;11.20;99.90;;;;;;5053326;28;20409;-71
2023/05/01 02:58:54;;;;;;;0.40;0.40;;;11.20;99.90;;;;;;5053890;28;20400;-71
2023/05/01 03:01:20;;;;;;;1.00;1.00;;;11.10;99.90;;;;;;5054060;28;20784;-70
2023/05/01 03:03:46;;;;;;;0.85;0.85;;;11.10;99.90;;;;;;5054022;28;20393;-71
2023/05/01 03:06:14;;;;;;;1.30;1.20;;;11.10;99.90;;;;;;5053800;28;20248;-71
2023/05/01 03:08:40;;;;;;;1.02;1.02;;;11.00;99.90;;;;;;5053655;28;20284;-71
2023/05/01 03:11:06;;;;;;;1.83;1.00;;;11.00;99.90;;;;;;5054457;28;20575;-71
2023/05/01 03:13:33;;;;;;;1.57;1.47;;;11.00;99.90;;;;;;5053768;28;20411;-71
2023/05/01 03:15:58;;;;;;;1.65;1.58;;;11.00;99.90;;;;;;5053625;28;20424;-70
2023/05/01 03:18:24;;;;;;;1.47;1.03;;;11.10;99.90;;;;;;5053035;28;20178;-70
2023/05/01 03:20:53;;;;;;;2.70;1.27;;;11.10;99.90;;;;;;5053846;28;20657;-70
2023/05/01 03:23:20;;;;;;;2.10;1.90;;;11.10;99.90;;;;;;5053668;28;20178;-71
2023/05/01 03:25:45;;;;;;;1.83;1.73;;;11.00;99.90;;;;;;5053443;28;20828;-71
2023/05/01 03:28:11;;;;;;;0.80;0.80;;;11.00;99.90;;;;;;5053480;28;20459;-70
2023/05/01 03:30:37;;;;;;;0.60;0.60;;;11.00;99.90;;;;;;5053570;28;20194;-71
2023/05/01 03:33:02;;;;;;;0.87;0.87;;;11.00;99.90;;;;;;5053405;28;20169;-71
2023/05/01 03:35:28;;;;;;;1.27;1.17;;;;;;;;;;5053453;28;20247;-71
2023/05/01 03:37:54;;;;;;;2.00;1.03;;;11.00;99.90;;;;;;5053254;28;20493;-70
2023/05/01 03:40:20;;;;;;;0.50;0.50;;;11.00;99.90;;;;;;5053575;28;20455;-71
2023/05/01 03:42:45;;;;;;;1.07;1.07;;;10.90;99.90;;;;;;5052135;28;20174;-70
2023/05/01 03:45:11;;;;;;;1.13;1.13;;;11.00;99.90;;;;;;5053420;28;20190;-70
2023/05/01 03:47:36;;;;;;;2.10;1.90;;;11.00;99.90;;;;;;5053022;28;20224;-70
2023/05/01 03:50:02;;;;;;;1.57;1.47;;;11.00;99.90;;;;;;5053147;28;20208;-71
2023/05/01 03:52:28;;;;;;;0.90;0.90;;;11.00;99.90;;;;;;5053436;28;20208;-70
2023/05/01 03:54:54;;;;;;;2.27;1.30;;;10.90;99.90;;;;;;5053057;28;20920;-70
2023/05/01 03:57:19;;;;;;;0.50;0.50;;;10.90;99.90;;;;;;5053095;28;20174;-70
2023/05/01 03:59:46;;;;;;;2.40;2.30;;;10.90;99.90;;;;;;5053301;28;20245;-71
2023/05/01 04:02:11;;;;;;;0.70;0.70;;;10.80;99.90;;;;;;5053143;28;20264;-71
2023/05/01 04:04:37;;;;;;;0.93;0.93;;;10.80;99.90;;;;;;5053200;28;20187;-70
2023/05/01 04:07:04;;;;;;;1.13;0.80;;;;;;;;;;5055186;28;20683;-70
2023/05/01 04:09:30;;;;;;;1.58;1.48;;;10.80;99.90;;;;;;5057182;28;20162;-71
2023/05/01 04:11:55;;;;;;;0.50;0.50;;;10.90;99.90;;;;;;5057192;28;20205;-71
2023/05/01 04:14:21;;;;;;;1.47;1.43;;;10.90;99.90;;;;;;5057223;28;20227;-70
2023/05/01 04:16:47;;;;;;;2.20;1.20;;;10.80;99.90;;;;;;5056872;28;20645;-70
2023/05/01 04:19:12;;;;;;;0.60;0.60;;;10.80;99.90;;;;;;5057005;28;20172;-70
2023/05/01 04:21:38;;;;;;;0.90;0.90;;;10.80;99.90;;;;;;5057040;28;20257;-70
2023/05/01 04:24:04;;;;;;;1.00;1.00;;;10.70;99.90;;;;;;5056907;28;20578;-70
2023/05/01 04:26:30;;;;;;;1.20;1.20;;;10.80;99.90;;;;;;5056883;28;20174;-70
2023/05/01 04:28:55;;;;;;;0.90;0.90;;;10.90;99.90;;;;;;5056868;28;20899;-71
2023/05/01 04:31:21;;;;;;;1.47;1.47;;;10.90;99.90;;;;;;5056880;28;20573;-70
2023/05/01 04:33:46;;;;;;;1.00;0.83;;;10.90;99.90;;;;;;5057171;28;20223;-71
2023/05/01 04:36:12;;;;;;;3.97;2.00;;;10.90;99.90;;;;;;5056621;28;20185;-70
2023/05/01 04:38:38;;;;;;;2.20;2.10;;;11.00;99.90;;;;;;5056612;28;20186;-70
2023/05/01 04:41:06;;;;;;;0.60;0.60;;;10.90;99.90;;;;;;5056729;28;20174;-70
2023/05/01 04:43:32;;;;;;;1.20;1.20;;;10.90;99.90;;;;;;5055260;28;20170;-70
2023/05/01 04:45:58;;;;;;;1.53;1.43;;;10.90;99.90;;;;;;5056591;28;20436;-70
2023/05/01 04:48:23;;;;;;;0.60;0.50;;;10.90;99.90;;;;;;5056295;28;20223;-70
2023/05/01 04:50:49;;;;;;;2.53;2.43;;;10.80;99.90;;;;;;5056232;28;20205;-71
2023/05/01 04:53:15;;;;;;;1.17;1.00;;;10.90;99.90;;;;;;5056667;28;20517;-71
2023/05/01 04:55:40;;;;;;;2.90;1.93;;;10.90;99.90;;;;;;5056498;28;20240;-71
2023/05/01 04:58:06;;;;;;;1.20;1.20;;;11.00;99.90;;;;;;5056191;28;20196;-71
2023/05/01 05:00:32;;;;;;;0.93;0.93;;;11.00;99.90;;;;;;5056401;28;20181;-70
2023/05/01 05:02:58;;;;;;;0.77;0.77;;;11.00;99.90;;;;;;5056241;28;20181;-70
2023/05/01 05:05:23;;;;;;;2.23;2.07;;;11.00;99.90;;;;;;5056312;28;20577;-71
2023/05/01 05:07:49;;;;;;;1.70;1.63;;;11.10;99.90;;;;;;5056046;28;20216;-71
2023/05/01 05:10:15;;;;;;;5.20;1.73;;;11.00;99.90;;;;;;5056129;28;20277;-70
2023/05/01 05:12:40;;;;;;;2.00;1.90;;;11.00;99.90;;;;;;5055995;28;20634;-71
2023/05/01 05:15:06;;;;;;;1.67;1.60;;;11.10;99.90;;;;;;5056230;28;20191;-70
2023/05/01 05:17:32;;;;;;;3.67;1.80;;;11.10;99.90;;;;;;5055538;28;20548;-70
2023/05/01 05:19:58;;;;;;;0.83;0.83;;;11.10;99.90;;;;;;5055673;28;20400;-70
2023/05/01 05:22:24;;;;;;;0.70;0.70;;;11.10;99.90;;;;;;5054682;28;20174;-73
2023/05/01 05:24:54;;;;;;;1.80;1.70;;;11.10;99.90;;;;;;5055762;28;20193;-70
2023/05/01 05:27:20;;;;;;;1.70;1.60;;;11.20;99.90;;;;;;5055776;28;20818;-71
2023/05/01 05:29:46;;;;;;;0.63;0.63;;;11.20;99.90;;;;;;5055800;28;20533;-70
2023/05/01 05:32:12;;;;;;;1.50;1.20;;;11.20;99.90;;;;;;5055674;28;20207;-70
2023/05/01 05:34:38;;;;;;;3.90;2.20;;;;;;;;;;5055818;28;20210;-70
2023/05/01 05:37:03;;;;;;;3.53;3.00;;;11.20;99.90;;;;;;5055707;28;20405;-70
2023/05/01 05:39:30;;;;;;;1.53;1.43;;;;;;;;;;5055605;28;20404;-71
2023/05/01 05:41:56;;;;;;;0.90;0.90;;;11.30;99.90;;;;;;5055716;28;20631;-70
2023/05/01 05:44:22;;;;;;;2.87;2.77;;;11.40;99.90;;;;;;5055356;28;20425;-71
2023/05/01 05:46:47;;;;;;;6.63;2.37;;;11.40;99.90;;;;;;5055405;28;20440;-71
2023/05/01 05:49:13;;;;;;;3.20;1.47;;;11.40;99.90;;;;;;5055383;28;20188;-70
2023/05/01 05:51:38;;;;;;;2.57;2.37;;;11.40;99.90;;;;;;5055217;28;20198;-71
2023/05/01 05:54:04;;;;;;;0.87;0.87;;;;;;;;;;5055232;28;20177;-71
2023/05/01 05:56:30;;;;;;;0.83;0.83;;;11.50;99.90;;;;;;5055193;28;20640;-71
2023/05/01 05:58:56;;;;;;;1.30;1.30;;;11.50;99.90;;;;;;5054929;28;20435;-70
2023/05/01 06:01:21;;;;;;;3.40;1.73;;;11.60;99.90;;;;;;5055322;28;20502;-71
2023/05/01 06:03:47;;;;;;;2.63;1.23;;;11.60;99.90;;;;;;5055130;28;20170;-70
2023/05/01 06:06:12;;;;;;;1.33;1.33;;;11.70;99.90;;;;;;5055029;28;20186;-71
2023/05/01 06:08:38;;;;;;;1.10;1.00;;;11.70;99.90;;;;;;5054968;28;20174;-70
2023/05/01 06:11:04;;;;;;;1.63;1.53;;;11.70;99.90;;;;;;5055067;28;20194;-71
2023/05/01 06:13:31;;;;;;;2.23;2.13;;;11.60;99.90;;;;;;5055194;28;20186;-70
2023/05/01 06:15:57;;;;;;;1.90;1.70;;;11.60;99.90;;;;;;5055211;28;20420;-70
2023/05/01 06:18:23;;;;;;;2.00;1.90;;;11.60;99.90;;;;;;5054700;28;20470;-71
2023/05/01 06:20:48;;;;;;;1.57;1.47;;;11.60;99.90;;;;;;5054842;28;20170;-70
2023/05/01 06:23:14;;;;;;;2.17;1.67;;;11.60;99.90;;;;;;5054865;28;20216;-71
2023/05/01 06:25:40;;;;;;;2.97;1.50;;;11.60;99.90;;;;;;5054627;28;20607;-70
2023/05/01 06:28:05;;;;;;;1.80;0.77;;;11.50;99.90;;;;;;5054546;28;20177;-71
2023/05/01 06:30:31;;;;;;;1.23;1.23;;;11.60;99.90;;;;;;5053477;28;20203;-71
2023/05/01 06:32:56;;;;;;;1.47;1.27;;;11.70;99.90;;;;;;5054561;28;20173;-70
2023/05/01 06:35:22;;;;;;;0.87;0.87;;;11.60;99.90;;;;;;5054431;28;20205;-71
2023/05/01 06:37:48;;;;;;;1.20;1.20;;;11.40;99.90;;;;;;5054275;28;20215;-71
2023/05/01 06:40:13;;;;;;;5.07;1.37;;;11.50;99.90;;;;;;5054370;28;20221;-70
2023/05/01 06:42:39;;;;;;;2.03;1.50;;;11.40;99.90;;;;;;5054335;28;20699;-70
2023/05/01 06:45:06;;;;;;;1.90;1.80;;;11.40;99.90;;;;;;5054529;28;20581;-71
2023/05/01 06:47:32;;;;;;;1.60;1.27;;;11.40;99.90;;;;;;5054324;28;20769;-70
2023/05/01 06:49:58;;;;;;;0.60;0.60;;;11.50;99.90;;;;;;5053974;28;20459;-70
2023/05/01 06:52:24;;;;;;;1.63;1.43;;;11.50;99.90;;;;;;5054308;28;20284;-71
2023/05/01 06:54:49;;;;;;;2.20;1.90;;;11.50;99.90;;;;;;5054187;28;20282;-71
2023/05/01 06:57:15;;;;;;;1.90;1.80;;;11.60;99.90;;;;;;5053865;28;20843;-71
2023/05/01 06:59:41;;;;;;;1.03;0.77;;;11.60;99.90;;;;;;5053843;28;20528;-71
2023/05/01 07:02:07;;;;;;;1.23;1.13;;;11.60;99.90;;;;;;5053999;28;20236;-71
2023/05/01 07:04:32;;;;;;;2.20;1.53;;;11.70;99.90;;;;;;5054031;28;20261;-71
2023/05/01 07:06:58;;;;;;;1.03;1.03;;;11.70;99.90;;;;;;5053829;28;20170;-70
2023/05/01 07:09:24;;;;;;;1.37;1.37;;;11.80;99.90;;;;;;5054035;28;20170;-71
2023/05/01 07:11:49;;;;;;;1.50;1.40;;;11.80;99.90;;;;;;5053705;28;20284;-71
2023/05/01 07:14:15;;;;;;;2.00;1.60;;;11.90;99.90;;;;;;5054534;28;21865;-70
2023/05/01 07:16:41;;;;;;;0.60;0.60;;;11.90;99.90;;;;;;5053908;28;20170;-71
2023/05/01 07:19:06;;;;;;;0.90;0.90;;;11.90;99.90;;;;;;5053646;28;20650;-70
2023/05/01 07:21:32;;;;;;;0.60;0.60;;;11.80;99.90;;;;;;5053763;28;20173;-71
2023/05/01 07:23:58;;;;;;;0.53;0.53;;;11.90;99.90;;;;;;5053720;28;20621;-71
2023/05/01 07:26:26;;;;;;;1.00;0.90;;;11.90;99.90;;;;;;5053525;28;20269;-71
2023/05/01 07:28:52;;;;;;;0.70;0.70;;;12.00;99.90;;;;;;5053426;28;20174;-70
2023/05/01 07:31:18;;;;;;;2.93;1.97;;;11.90;99.90;;;;;;5053765;28;20939;-70
2023/05/01 07:33:43;;;;;;;0.80;0.67;;;11.80;99.90;;;;;;5053687;28;20197;-70
2023/05/01 07:36:10;;;;;;;0.83;0.83;;;11.60;99.90;;;;;;5053329;28;20190;-70
2023/05/01 07:38:36;;;;;;;0.83;0.80;;;;;;;;;;5053217;28;20178;-70
2023/05/01 07:41:01;;;;;;;2.00;1.80;;;11.50;99.90;;;;;;5053006;28;20903;-70
2023/05/01 07:43:27;;;;;;;1.17;1.10;;;11.60;99.90;;;;;;5053481;28;20405;-71
2023/05/01 07:45:58;;;;;;;0.80;0.80;;;11.60;99.90;;;;;;5053235;28;20268;-71
2023/05/01 07:48:25;;;;;;;0.50;0.50;;;11.40;99.90;;;;;;5053104;28;20182;-70
2023/05/01 07:50:50;;;;;;;1.13;1.07;;;11.30;99.90;;;;;;5053159;28;20560;-71
2023/05/01 07:53:17;;;;;;;4.43;2.10;;;11.30;99.90;;;;;;5053331;28;20437;-71
2023/05/01 07:55:43;;;;;;;1.03;1.03;;;11.40;99.90;;;;;;5053259;28;20476;-70
2023/05/01 07:58:09;;;;;;;0.40;0.40;;;11.40;99.90;;;;;;5053154;28;20942;-71
2023/05/01 08:00:35;;;;;;;1.67;0.77;;;11.50;99.90;;;;;;5053257;28;20249;-71
2023/05/01 08:03:01;;;;;;;0.80;0.67;;;11.40;99.90;;;;;;5053278;28;20177;-71
2023/05/01 08:05:26;;;;;;;1.17;1.17;;;11.40;99.90;;;;;;5053131;28;20424;-71
2023/05/01 08:07:52;;;;;;;1.07;0.97;;;11.30;99.90;;;;;;5052892;28;20506;-71
2023/05/01 08:10:17;;;;;;;0.93;0.60;;;11.30;99.90;;;;;;5052968;28;20205;-70
2023/05/01 08:12:43;;;;;;;0.60;0.60;;;11.30;99.90;;;;;;5052985;28;20213;-70
2023/05/01 08:15:09;;;;;;;0.77;0.77;;;11.30;99.90;;;;;;5053079;28;20281;-70
2023/05/01 08:17:35;;;;;;;0.77;0.77;;;11.30;99.90;;;;;;5053009;28;20304;-71
2023/05/01 08:20:02;;;;;;;1.33;0.57;;;11.30;99.90;;;;;;5053114;28;20539;-70
2023/05/01 08:22:27;;;;;;;0.40;0.40;;;11.40;99.90;;;;;;5052859;28;20752;-71
2023/05/01 08:24:53;;;;;;;1.20;1.20;;;11.40;99.90;;;;;;5052813;28;20434;-71
2023/05/01 08:27:18;;;;;;;0.80;0.80;;;11.40;99.90;;;;;;5052729;28;20257;-70
2023/05/01 08:29:45;;;;;;;0.83;0.83;;;;;;;;;;5052900;28;20171;-71
2023/05/01 08:32:10;;;;;;;0.30;0.30;;;11.40;99.90;;;;;;5052860;28;20167;-71
2023/05/01 08:34:36;;;;;;;2.50;0.87;;;11.50;99.90;;;;;;5052913;28;20427;-70
2023/05/01 08:37:02;;;;;;;1.20;1.13;;;11.50;99.90;;;;;;5052658;28;20689;-70
2023/05/01 08:39:27;;;;;;;0.90;0.83;;;11.60;99.90;;;;;;5052904;28;20261;-70
2023/05/01 08:41:53;;;;;;;2.20;1.23;;;11.70;99.90;;;;;;5052705;28;20257;-71
2023/05/01 08:44:19;;;;;;;0.70;0.70;;;11.80;99.90;;;;;;5052662;28;20198;-71
2023/05/01 08:46:48;;;;;;;0.57;0.57;;;11.90;99.90;;;;;;5052812;28;20178;-70
2023/05/01 08:49:17;;;;;;;1.23;0.77;;;11.90;99.90;;;;;;5052772;28;20474;-70
2023/05/01 08:51:47;;;;;;;1.57;1.47;;;11.90;99.90;;;;;;5052700;28;20448;-71
2023/05/01 08:54:14;;;;;;;0.40;0.40;;;12.30;99.90;;;;;;5054812;28;20396;-70
2023/05/01 08:56:42;;;;;;;0.87;0.87;;;12.30;99.90;;;;;;5056357;28;20407;-71
2023/05/01 08:59:09;;;;;;;0.60;0.60;;;12.30;99.90;;;;;;5056572;28;20405;-71
2023/05/01 09:01:37;;;;;;;0.50;0.50;;;12.30;99.90;;;;;;5056365;28;20419;-70
2023/05/01 09:04:05;;;;;;;2.00;1.50;;;12.40;99.90;;;;;;5056331;28;20404;-70
2023/05/01 09:06:31;;;;;;;0.43;0.43;;;12.60;99.90;;;;;;5056160;28;20527;-70
2023/05/01 09:08:58;;;;;;;0.30;0.30;;;12.60;99.90;;;;;;5056035;28;20409;-71
2023/05/01 09:11:24;;;;;;;0.37;0.37;;;12.50;99.90;;;;;;5055945;28;20554;-70
2023/05/01 09:13:51;;;;;;;0.40;0.40;;;12.50;99.90;;;;;;5056163;28;20405;-70
2023/05/01 09:16:17;;;;;;;0.60;0.60;;;12.50;99.90;;;;;;5055934;28;20926;-70
2023/05/01 09:18:43;;;;;;;0.40;0.40;;;12.40;99.90;;;;;;5055730;28;20412;-70
2023/05/01 09:21:09;;;;;;;0.83;0.83;;;12.30;99.90;;;;;;5055920;28;20489;-71
2023/05/01 09:23:36;;;;;;;0.30;0.30;;;;;;;;;;5055860;28;20436;-70
2023/05/01 09:26:05;;;;;;;2.20;0.97;;;12.70;99.90;;;;;;5055726;28;20464;-71
2023/05/01 09:28:46;;;;;;;0.30;0.30;;;12.80;99.90;;;;;;5055772;28;20861;-71
2023/05/01 09:31:23;;;;;;;0.90;0.90;;;12.70;99.90;;;;;;5055749;28;20448;-71
2023/05/01 09:33:57;;;;;;;0.50;0.50;;;12.60;99.90;;;;;;5056032;28;20488;-71
2023/05/01 09:36:25;;;;;;;0.47;0.47;;;12.70;99.90;;;;;;5055632;28;20408;-70
2023/05/01 09:38:51;;;;;;;0.50;0.50;;;12.70;99.90;;;;;;5055515;28;20401;-71
2023/05/01 09:41:17;;;;;;;1.27;1.23;;;12.80;99.90;;;;;;5055840;28;20749;-71
2023/05/01 09:43:52;;;;;;;1.13;0.60;;;12.70;99.90;;;;;;5055687;28;20178;-71
2023/05/01 09:46:18;;;;;;;0.30;0.30;;;12.70;99.90;;;;;;5055620;28;20523;-70
2023/05/01 09:48:54;;;;;;;0.40;0.40;;;12.60;99.90;;;;;;5055273;28;20908;-70
2023/05/01 09:51:28;;;;;;;0.40;0.40;;;12.60;99.90;;;;;;5055489;28;20650;-71
2023/05/01 09:54:03;;;;;;;0.40;0.40;;;12.80;99.90;;;;;;5055454;28;20411;-71
2023/05/01 09:56:31;;;;;;;1.07;1.03;;;12.80;99.90;;;;;;5055297;28;20395;-70
2023/05/01 09:59:01;;;;;;;0.43;0.43;;;12.80;99.90;;;;;;5055272;28;20542;-71
2023/05/01 10:01:40;;;;;;;0.40;0.40;;;12.70;99.90;;;;;;5055410;28;20419;-71
2023/05/01 10:04:08;;;;;;;0.37;0.37;;;13.00;99.90;;;;;;5054996;28;20416;-71
2023/05/01 10:06:35;;;;;;;0.40;0.40;;;12.80;99.90;;;;;;5055346;28;20420;-70
2023/05/01 10:09:02;;;;;;;1.13;1.13;;;12.90;99.90;;;;;;5054841;28;20423;-71
2023/05/01 10:11:28;;;;;;;0.40;0.40;;;13.10;99.90;;;;;;5054866;28;20483;-71
2023/05/01 10:14:09;;;;;;;1.13;0.77;;;13.40;99.90;;;;;;5054974;28;20409;-71
2023/05/01 10:16:37;;;;;;;0.60;0.60;;;13.90;99.90;;;;;;5054888;28;20301;-71
2023/05/01 10:19:03;;;;;;;0.30;0.30;;;14.40;99.90;;;;;;5054882;28;20407;-71
2023/05/01 10:21:31;;;;;;;1.33;1.00;;;15.10;98.20;;;;;;5054965;28;20455;-70
2023/05/01 10:23:58;;;;;;;0.47;0.47;;;;;;;;;;5054716;28;20404;-71
2023/05/01 10:26:25;;;;;;;0.40;0.40;;;16.00;96.10;;;;;;5054765;28;20487;-71
2023/05/01 10:28:51;;;;;;;0.50;0.50;;;16.10;95.20;;;;;;5054568;28;20416;-71
2023/05/01 10:31:17;;;;;;;0.90;0.90;;;16.10;94.20;;;;;;5054642;28;20441;-71
2023/05/01 10:33:44;;;;;;;0.63;0.63;;;15.90;94.40;;;;;;5054658;28;20401;-72
2023/05/01 10:36:27;;;;;;;0.53;0.53;;;15.80;94.50;;;;;;5054625;28;20273;-70
2023/05/01 10:38:53;;;;;;;0.40;0.40;;;15.80;94.50;;;;;;5054310;28;20413;-71
2023/05/01 10:41:59;;;;;;;0.93;0.90;;;15.70;95.00;;;;;;5054550;28;20403;-71
2023/05/01 10:44:26;;;;;;;0.80;0.80;;;15.70;94.10;;;;;;5054489;28;20468;-71
2023/05/01 10:46:52;;;;;;;0.50;0.50;;;15.70;94.40;;;;;;5054319;28;20412;-72
2023/05/01 10:49:18;;;;;;;0.60;0.53;;;15.80;94.20;;;;;;5054131;28;20435;-72
2023/05/01 10:51:56;;;;;;;0.50;0.50;;;15.90;93.90;;;;;;5054397;28;20466;-71
2023/05/01 10:54:23;;;;;;;0.50;0.50;;;16.00;93.60;;;;;;5054284;28;20428;-72
2023/05/01 10:56:49;;;;;;;0.67;0.60;;;16.10;93.50;;;;;;5053889;28;20408;-72
2023/05/01 10:59:14;;;;;;;0.60;0.60;;;16.00;94.00;;;;;;5052839;28;20474;-72
2023/05/01 11:01:43;;;;;;;0.50;0.40;;;15.90;94.10;;;;;;5054018;28;20440;-72
2023/05/01 11:04:18;;;;;;;0.40;0.40;;;15.10;99.90;;;;;;5054000;28;20173;-72
2023/05/01 11:07:07;;;;;;;0.60;0.53;;;15.00;95.30;;;;;;5053779;28;20407;-69
2023/05/01 11:09:43;;;;;;;0.60;0.60;;;14.90;95.60;;;;;;5053617;28;20518;-69
2023/05/01 11:12:10;;;;;;;0.60;0.60;;;14.90;95.10;;;;;;5053917;28;20474;-70
2023/05/01 11:15:04;;;;;;;0.97;0.87;;;14.60;96.10;;;;;;5053761;28;20795;-70
2023/05/01 11:17:39;;;;;;;0.70;0.70;;;14.80;95.90;;;;;;5052958;28;20434;-70
2023/05/01 11:20:06;;;;;;;0.60;0.60;;;14.90;97.20;;;;;;5053734;28;20404;-71
2023/05/01 11:22:35;;;;;;;0.50;0.50;;;15.00;95.70;;;;;;5054040;28;20452;-71
2023/05/01 11:25:05;;;;;;;0.90;0.70;;;15.00;96.10;;;;;;5053684;28;20474;-71
2023/05/01 11:27:30;;;;;;;2.00;0.50;;;15.20;96.10;;;;;;5053510;28;20423;-71
2023/05/01 11:29:58;;;;;;;0.50;0.50;;;15.50;95.50;;;;;;5053586;28;20419;-71
2023/05/01 11:32:27;;;;;;;0.40;0.40;;;15.60;95.60;;;;;;5053966;28;20401;-71
2023/05/01 11:34:53;;;;;;;0.40;0.30;;;15.50;95.60;;;;;;5053445;28;21003;-71
2023/05/01 11:37:37;;;;;;;0.50;0.50;;;15.50;95.50;;;;;;5053319;28;20409;-71
2023/05/01 11:40:03;;;;;;;0.50;0.50;;;15.10;95.40;;;;;;5053813;28;20447;-71
2023/05/01 11:42:29;;;;;;;1.17;1.07;;;15.20;95.80;;;;;;5053561;28;20403;-71
2023/05/01 11:45:12;;;;;;;0.63;0.63;;;15.40;96.00;;;;;;5053598;28;20776;-71
2023/05/01 11:47:38;;;;;;;2.53;1.70;;;15.40;94.80;;;;;;5053462;28;20185;-71
2023/05/01 11:50:08;;;;;;;0.90;0.90;;;15.30;94.80;;;;;;5053168;28;20435;-71
2023/05/01 11:52:53;;;;;;;0.60;0.60;;;15.40;95.40;;;;;;5053499;28;20406;-70
2023/05/01 11:55:20;;;;;;;0.67;0.67;;;15.30;95.50;;;;;;5053321;28;20950;-71
2023/05/01 11:57:50;;;;;;;0.83;0.83;;;15.40;95.20;;;;;;5053116;28;20407;-71
2023/05/01 12:00:36;;;;;;;0.80;0.80;;;15.50;95.70;;;;;;5053388;28;20416;-70
2023/05/01 12:03:05;;;;;;;0.83;0.83;;;15.50;94.60;;;;;;5053422;28;20408;-71
2023/05/01 12:05:33;;;;;;;0.90;0.90;;;15.40;95.30;;;;;;5053085;28;20441;-70
2023/05/01 12:08:10;;;;;;;0.80;0.80;;;15.50;95.00;;;;;;5053007;28;20546;-71
2023/05/01 12:10:39;;;;;;;0.50;0.50;;;15.60;95.00;;;;;;5053344;28;20448;-71
2023/05/01 12:13:05;;;;;;;0.70;0.70;;;16.80;95.20;;;;;;5053219;28;20924;-71
2023/05/01 12:15:35;;;;;;;0.50;0.50;;;16.00;94.50;;;;;;5053109;28;20915;-71
2023/05/01 12:18:01;;;;;;;1.43;1.00;;;16.00;94.50;;;;;;5052832;28;20420;-71
2023/05/01 12:20:38;;;;;;;0.50;0.50;;;16.10;94.60;;;;;;5053050;28;20435;-71
2023/05/01 12:23:05;;;;;;;0.40;0.40;;;16.10;94.10;;;;;;5053198;28;20783;-71
2023/05/01 12:25:33;;;;;;;1.90;0.77;;;15.90;94.10;;;;;;5052988;28;20420;-70
2023/05/01 12:28:18;;;;;;;0.60;0.60;;;15.50;94.20;;;;;;5054855;28;20420;-71
2023/05/01 12:30:45;;;;;;;0.67;0.67;;;15.40;94.50;;;;;;5057348;28;20536;-71
2023/05/01 12:33:18;;;;;;;0.53;0.53;;;15.30;95.20;;;;;;5056925;28;20409;-70
2023/05/01 12:35:46;;;;;;;1.73;0.60;;;15.50;94.80;;;;;;5056751;28;20443;-71
2023/05/01 12:38:19;;;;;;;0.57;0.57;;;15.60;95.00;;;;;;5056722;28;20462;-70
2023/05/01 12:40:52;;;;;;;0.80;0.80;;;15.40;94.50;;;;;;5056836;28;20495;-71
2023/05/01 12:43:28;;;;;;;1.10;0.83;;;15.30;94.80;;;;;;5057024;28;20473;-70
2023/05/01 12:45:54;;;;;;;0.97;0.97;;;15.10;95.20;;;;;;5056670;28;20779;-71
2023/05/01 12:48:20;;;;;;;1.23;1.13;;;15.10;95.40;;;;;;5056507;28;20462;-71
2023/05/01 12:50:53;;;;;;;0.63;0.63;;;;;;;;;;5056404;28;20217;-71
2023/05/01 12:53:20;;;;;;;0.50;0.50;;;15.60;95.40;;;;;;5056672;28;20515;-71
2023/05/01 12:55:48;;;;;;;0.40;0.40;;;16.00;95.40;;;;;;5056370;28;20436;-71